createdAt,value
2023-05-10T00:06:09.704Z,21.9
2023-05-10T00:16:09.051Z,21.8
2023-05-10T00:26:08.761Z,21.7
2023-05-10T00:36:08.311Z,21.8
2023-05-10T00:46:07.846Z,21.6
2023-05-10T00:56:07.689Z,21.8
2023-05-10T01:06:07.570Z,21.9
2023-05-10T01:16:07.332Z,21.7
2023-05-10T01:26:07.203Z,21.8
2023-05-10T01:36:06.686Z,21.8
2023-05-10T01:46:06.204Z,21.8
2023-05-10T01:56:05.802Z,21.8
2023-05-10T02:06:05.383Z,21.8
2023-05-10T02:16:05.016Z,21.5
2023-05-10T02:26:04.122Z,21.4
2023-05-10T02:36:04.158Z,21.8
2023-05-10T02:46:03.788Z,21.7
2023-05-10T02:56:02.598Z,21.7
2023-05-10T03:06:07.197Z,21.6
2023-05-10T03:16:06.901Z,21.4
2023-05-10T03:26:06.252Z,21.7
2023-05-10T03:36:05.989Z,21.8
2023-05-10T03:46:05.647Z,21.7
2023-05-10T03:56:05.183Z,21.6
2023-05-10T04:06:05.938Z,21.6
2023-05-10T04:16:07.455Z,21.6
2023-05-10T04:26:06.569Z,21.6
2023-05-10T04:36:07.691Z,21.6
2023-05-10T04:46:08.709Z,21.6
2023-05-10T04:56:09.848Z,21.5
2023-05-10T05:06:09.649Z,21.5
2023-05-10T05:16:09.735Z,21.4
2023-05-10T05:26:09.412Z,21.4
2023-05-10T05:36:09.771Z,21.5
2023-05-10T05:46:10.076Z,21.3
2023-05-10T05:56:11.835Z,21.4
2023-05-10T06:06:11.791Z,21.6
2023-05-10T06:16:12.747Z,21.6
2023-05-10T06:26:13.038Z,21.5
2023-05-10T06:36:12.540Z,21.5
2023-05-10T06:46:13.365Z,21.6
2023-05-10T06:56:12.099Z,21.6
2023-05-10T07:06:18.647Z,21.6
2023-05-10T07:16:12.885Z,21.4
2023-05-10T07:26:12.542Z,21.4
2023-05-10T07:46:11.925Z,21.4
2023-05-10T07:56:12.103Z,21.5
2023-05-10T08:06:11.584Z,21.4
2023-05-10T08:16:14.444Z,21.3
2023-05-10T08:26:19.261Z,21.4
2023-05-10T08:36:27.323Z,21.4
2023-05-10T08:46:34.756Z,21.4
2023-05-10T08:56:38.943Z,21.4
2023-05-10T09:06:11.680Z,21.3
2023-05-10T09:16:21.494Z,21.4
2023-05-10T09:26:22.459Z,21.3
2023-05-10T09:36:32.869Z,20.9
2023-05-10T09:46:38.409Z,20.9
2023-05-10T09:56:44.277Z,21.4
2023-05-10T10:06:53.085Z,20.7
2023-05-10T10:17:07.970Z,21.6
2023-05-10T10:27:11.541Z,21.2
2023-05-10T10:37:19.354Z,21.3
2023-05-10T10:47:27.422Z,21.2
2023-05-10T10:57:34.421Z,21.2
2023-05-10T11:07:42.135Z,21.3
2023-05-10T11:17:51.738Z,20.4
2023-05-10T11:28:00.719Z,20.6
2023-05-10T11:38:09.545Z,21.3
2023-05-10T11:48:14.586Z,21.4
2023-05-10T11:58:20.585Z,21.2
2023-05-10T12:08:26.563Z,21.3
2023-05-10T12:18:32.858Z,21.3
2023-05-10T12:38:45.018Z,20.9
2023-05-10T12:48:50.592Z,21.3
2023-05-10T12:58:52.131Z,21.3
2023-05-10T13:08:53.095Z,21.3
2023-05-10T13:18:52.867Z,21.3
2023-05-10T13:28:52.329Z,21.3
2023-05-10T13:38:52.099Z,21.3
2023-05-10T13:48:51.712Z,21.4
2023-05-10T13:58:51.582Z,21.3
2023-05-10T14:08:51.046Z,21.3
2023-05-10T14:18:51.430Z,21.3
2023-05-10T14:28:50.976Z,21.3
2023-05-10T14:38:51.591Z,21
2023-05-10T14:48:51.543Z,21.4
2023-05-10T14:58:51.893Z,21.3
2023-05-10T15:06:08.222Z,21.3
2023-05-10T15:16:08.396Z,21.3
2023-05-10T15:26:08.645Z,21.3
2023-05-10T15:36:09.186Z,21.1
2023-05-10T15:46:09.086Z,21.3
2023-05-10T15:56:08.490Z,21.3
2023-05-10T16:06:09.759Z,21.5
2023-05-10T16:16:11.228Z,21.3
2023-05-10T16:26:12.212Z,21
2023-05-10T16:36:13.109Z,21.3
2023-05-10T16:46:14.678Z,21.1
2023-05-10T16:56:16.238Z,21.3
2023-05-10T17:06:15.543Z,21.3
2023-05-10T17:16:15.732Z,21.3
2023-05-10T17:26:15.677Z,21.2
2023-05-10T17:36:15.500Z,21.2
2023-05-10T17:46:15.024Z,21.3
2023-05-10T17:56:16.191Z,21.3
2023-05-10T18:06:16.023Z,21.3
2023-05-10T18:16:15.412Z,21.3
2023-05-10T18:26:15.766Z,21.2
2023-05-10T18:36:15.470Z,21.3
2023-05-10T18:46:15.014Z,21.2
2023-05-10T18:56:15.191Z,20.9
2023-05-10T19:06:15.031Z,21.1
2023-05-10T19:16:15.706Z,21.3
2023-05-10T19:26:16.198Z,20.9
2023-05-10T19:36:16.526Z,21.3
2023-05-10T19:46:18.624Z,21.3
2023-05-10T19:56:17.136Z,21.3
2023-05-10T20:06:16.441Z,21.2
2023-05-10T20:16:16.443Z,21.3
2023-05-10T20:26:16.745Z,21.2
2023-05-10T20:36:17.330Z,20.8
2023-05-10T20:46:17.249Z,21.2
2023-05-10T20:56:16.751Z,21.1
2023-05-10T21:06:07.844Z,21.2
2023-05-10T21:16:08.754Z,21
2023-05-10T21:26:08.559Z,20.8
2023-05-10T21:36:09.699Z,21.2
2023-05-10T21:46:10.809Z,21
2023-05-10T21:56:12.246Z,20.9
2023-05-10T22:06:12.877Z,20.9
2023-05-10T22:16:14.262Z,21.1
2023-05-10T22:26:14.787Z,21.1
2023-05-10T22:36:17.014Z,21
2023-05-10T22:46:19.910Z,21.2
2023-05-10T22:56:21.100Z,21.1
2023-05-10T23:06:20.859Z,20.8
2023-05-10T23:16:20.804Z,20.8
2023-05-10T23:26:20.556Z,21
2023-05-10T23:36:20.393Z,20.9
2023-05-10T23:46:21.504Z,21
2023-05-10T23:56:22.653Z,21
